sensor_id;sensor_type;location;lat;lon;timestamp;temperature;humidity
5196;DHT22;2617;51.006;12.436;2023-05-27T00:01:43;8.70;99.90
5196;DHT22;2617;51.006;12.436;2023-05-27T00:06:47;8.50;99.90
5196;DHT22;2617;51.006;12.436;2023-05-27T00:11:48;8.40;99.90
5196;DHT22;2617;51.006;12.436;2023-05-27T00:16:51;8.20;99.90
5196;DHT22;2617;51.006;12.436;2023-05-27T00:21:53;8.10;99.90
5196;DHT22;2617;51.006;12.436;2023-05-27T00:26:56;8.00;99.90
5196;DHT22;2617;51.006;12.436;2023-05-27T00:31:59;7.90;99.90
5196;DHT22;2617;51.006;12.436;2023-05-27T00:37:02;7.80;99.90
5196;DHT22;2617;51.006;12.436;2023-05-27T00:42:04;7.70;99.90
5196;DHT22;2617;51.006;12.436;2023-05-27T00:47:06;7.60;99.90
5196;DHT22;2617;51.006;12.436;2023-05-27T00:52:10;7.50;99.90
5196;DHT22;2617;51.006;12.436;2023-05-27T00:57:13;7.50;99.90
5196;DHT22;2617;51.006;12.436;2023-05-27T01:02:15;7.50;99.90
5196;DHT22;2617;51.006;12.436;2023-05-27T01:07:43;7.40;99.90
5196;DHT22;2617;51.006;12.436;2023-05-27T01:12:47;7.40;99.90
5196;DHT22;2617;51.006;12.436;2023-05-27T01:17:49;7.30;99.90
5196;DHT22;2617;51.006;12.436;2023-05-27T01:22:51;7.20;99.90
5196;DHT22;2617;51.006;12.436;2023-05-27T01:27:53;7.10;99.90
5196;DHT22;2617;51.006;12.436;2023-05-27T01:33:04;7.00;99.90
5196;DHT22;2617;51.006;12.436;2023-05-27T01:38:05;7.00;99.90
5196;DHT22;2617;51.006;12.436;2023-05-27T01:43:08;6.80;99.90
5196;DHT22;2617;51.006;12.436;2023-05-27T01:48:10;6.80;99.90
5196;DHT22;2617;51.006;12.436;2023-05-27T01:53:13;6.70;99.90
5196;DHT22;2617;51.006;12.436;2023-05-27T01:58:15;6.60;99.90
5196;DHT22;2617;51.006;12.436;2023-05-27T02:03:17;6.40;99.90
5196;DHT22;2617;51.006;12.436;2023-05-27T02:08:20;6.40;99.90
5196;DHT22;2617;51.006;12.436;2023-05-27T02:13:22;6.30;99.90
5196;DHT22;2617;51.006;12.436;2023-05-27T02:18:26;6.30;99.90
5196;DHT22;2617;51.006;12.436;2023-05-27T02:23:28;6.20;99.90
5196;DHT22;2617;51.006;12.436;2023-05-27T02:28:30;6.20;99.90
5196;DHT22;2617;51.006;12.436;2023-05-27T02:33:33;6.10;99.90
5196;DHT22;2617;51.006;12.436;2023-05-27T02:38:36;5.90;99.90
5196;DHT22;2617;51.006;12.436;2023-05-27T02:43:38;5.90;99.90
5196;DHT22;2617;51.006;12.436;2023-05-27T02:48:41;5.80;99.90
5196;DHT22;2617;51.006;12.436;2023-05-27T02:53:44;5.70;99.90
5196;DHT22;2617;51.006;12.436;2023-05-27T02:58:46;5.70;99.90
5196;DHT22;2617;51.006;12.436;2023-05-27T03:03:49;5.60;99.90
5196;DHT22;2617;51.006;12.436;2023-05-27T03:08:51;5.50;99.90
5196;DHT22;2617;51.006;12.436;2023-05-27T03:13:54;5.50;99.90
5196;DHT22;2617;51.006;12.436;2023-05-27T03:18:56;5.60;99.90
5196;DHT22;2617;51.006;12.436;2023-05-27T03:23:58;5.60;99.90
5196;DHT22;2617;51.006;12.436;2023-05-27T03:29:01;5.70;99.90
5196;DHT22;2617;51.006;12.436;2023-05-27T03:34:03;5.90;99.90
5196;DHT22;2617;51.006;12.436;2023-05-27T03:39:06;6.20;99.90
5196;DHT22;2617;51.006;12.436;2023-05-27T03:44:08;6.90;99.90
5196;DHT22;2617;51.006;12.436;2023-05-27T03:49:10;8.00;99.90
5196;DHT22;2617;51.006;12.436;2023-05-27T03:54:14;9.10;99.90
5196;DHT22;2617;51.006;12.436;2023-05-27T03:59:17;10.20;99.90
5196;DHT22;2617;51.006;12.436;2023-05-27T04:04:20;11.40;99.90
5196;DHT22;2617;51.006;12.436;2023-05-27T04:09:22;12.50;99.90
5196;DHT22;2617;51.006;12.436;2023-05-27T04:14:25;13.70;99.90
5196;DHT22;2617;51.006;12.436;2023-05-27T04:19:27;14.80;98.30
5196;DHT22;2617;51.006;12.436;2023-05-27T04:24:30;15.90;93.50
5196;DHT22;2617;51.006;12.436;2023-05-27T04:29:32;16.80;92.30
5196;DHT22;2617;51.006;12.436;2023-05-27T04:34:34;17.50;91.20
5196;DHT22;2617;51.006;12.436;2023-05-27T04:39:37;17.70;90.70
5196;DHT22;2617;51.006;12.436;2023-05-27T04:44:39;18.40;89.60
5196;DHT22;2617;51.006;12.436;2023-05-27T04:49:43;17.70;90.00
5196;DHT22;2617;51.006;12.436;2023-05-27T04:54:45;17.60;89.80
5196;DHT22;2617;51.006;12.436;2023-05-27T04:59:47;18.20;89.30
5196;DHT22;2617;51.006;12.436;2023-05-27T05:04:55;19.00;86.50
5196;DHT22;2617;51.006;12.436;2023-05-27T05:09:58;19.00;84.50
5196;DHT22;2617;51.006;12.436;2023-05-27T05:15:00;18.20;85.30
5196;DHT22;2617;51.006;12.436;2023-05-27T05:20:04;15.70;92.30
5196;DHT22;2617;51.006;12.436;2023-05-27T05:25:07;15.70;92.30
5196;DHT22;2617;51.006;12.436;2023-05-27T05:30:10;12.80;99.90
5196;DHT22;2617;51.006;12.436;2023-05-27T05:35:13;12.80;99.90
5196;DHT22;2617;51.006;12.436;2023-05-27T05:40:16;11.70;99.90
5196;DHT22;2617;51.006;12.436;2023-05-27T05:45:19;11.70;99.90
5196;DHT22;2617;51.006;12.436;2023-05-27T05:50:21;11.40;99.90
5196;DHT22;2617;51.006;12.436;2023-05-27T05:55:24;11.40;99.90
5196;DHT22;2617;51.006;12.436;2023-05-27T06:00:26;11.90;99.90
5196;DHT22;2617;51.006;12.436;2023-05-27T06:05:29;12.10;99.90
5196;DHT22;2617;51.006;12.436;2023-05-27T06:10:31;11.80;99.90
5196;DHT22;2617;51.006;12.436;2023-05-27T06:15:33;11.90;99.90
5196;DHT22;2617;51.006;12.436;2023-05-27T06:20:36;12.00;99.90
5196;DHT22;2617;51.006;12.436;2023-05-27T06:25:38;12.10;99.90
5196;DHT22;2617;51.006;12.436;2023-05-27T06:30:41;12.30;99.90
5196;DHT22;2617;51.006;12.436;2023-05-27T06:35:43;12.50;99.90
5196;DHT22;2617;51.006;12.436;2023-05-27T06:40:47;12.60;99.90
5196;DHT22;2617;51.006;12.436;2023-05-27T06:45:49;12.70;99.90
5196;DHT22;2617;51.006;12.436;2023-05-27T06:50:52;13.10;99.90
5196;DHT22;2617;51.006;12.436;2023-05-27T06:55:55;13.30;99.90
5196;DHT22;2617;51.006;12.436;2023-05-27T07:00:57;13.50;99.90
5196;DHT22;2617;51.006;12.436;2023-05-27T07:05:59;13.50;99.90
5196;DHT22;2617;51.006;12.436;2023-05-27T07:11:01;13.70;99.90
5196;DHT22;2617;51.006;12.436;2023-05-27T07:16:06;14.20;99.90
5196;DHT22;2617;51.006;12.436;2023-05-27T07:21:08;14.30;99.90
5196;DHT22;2617;51.006;12.436;2023-05-27T07:26:10;14.30;99.90
5196;DHT22;2617;51.006;12.436;2023-05-27T07:31:13;14.30;99.90
5196;DHT22;2617;51.006;12.436;2023-05-27T07:36:15;14.70;99.80
5196;DHT22;2617;51.006;12.436;2023-05-27T07:41:18;14.70;99.90
5196;DHT22;2617;51.006;12.436;2023-05-27T07:46:21;15.10;96.70
5196;DHT22;2617;51.006;12.436;2023-05-27T07:51:23;15.10;96.70
5196;DHT22;2617;51.006;12.436;2023-05-27T07:56:26;15.20;97.90
5196;DHT22;2617;51.006;12.436;2023-05-27T08:01:29;14.90;98.20
5196;DHT22;2617;51.006;12.436;2023-05-27T08:06:31;15.20;97.20
5196;DHT22;2617;51.006;12.436;2023-05-27T08:11:33;14.90;96.40
5196;DHT22;2617;51.006;12.436;2023-05-27T08:16:36;15.10;97.00
5196;DHT22;2617;51.006;12.436;2023-05-27T08:21:38;14.90;96.90
5196;DHT22;2617;51.006;12.436;2023-05-27T08:26:40;15.00;96.70
5196;DHT22;2617;51.006;12.436;2023-05-27T08:31:43;15.10;96.70
5196;DHT22;2617;51.006;12.436;2023-05-27T08:36:46;15.00;97.60
5196;DHT22;2617;51.006;12.436;2023-05-27T08:41:48;15.60;97.40
5196;DHT22;2617;51.006;12.436;2023-05-27T08:46:51;15.80;95.60
5196;DHT22;2617;51.006;12.436;2023-05-27T08:51:53;15.90;95.20
5196;DHT22;2617;51.006;12.436;2023-05-27T08:56:56;15.70;95.20
5196;DHT22;2617;51.006;12.436;2023-05-27T09:01:58;15.80;94.40
5196;DHT22;2617;51.006;12.436;2023-05-27T09:07:01;15.60;94.60
5196;DHT22;2617;51.006;12.436;2023-05-27T09:12:04;15.90;92.80
5196;DHT22;2617;51.006;12.436;2023-05-27T09:17:07;15.90;92.80
5196;DHT22;2617;51.006;12.436;2023-05-27T09:22:09;15.80;93.40
5196;DHT22;2617;51.006;12.436;2023-05-27T09:27:11;16.00;93.20
5196;DHT22;2617;51.006;12.436;2023-05-27T09:32:22;16.10;91.30
5196;DHT22;2617;51.006;12.436;2023-05-27T09:37:18;16.00;91.20
5196;DHT22;2617;51.006;12.436;2023-05-27T09:42:20;16.20;90.30
5196;DHT22;2617;51.006;12.436;2023-05-27T09:47:22;16.20;90.40
5196;DHT22;2617;51.006;12.436;2023-05-27T09:52:25;16.10;88.60
5196;DHT22;2617;51.006;12.436;2023-05-27T09:57:27;16.10;90.20
5196;DHT22;2617;51.006;12.436;2023-05-27T10:02:30;16.20;90.00
5196;DHT22;2617;51.006;12.436;2023-05-27T10:07:36;16.60;88.20
5196;DHT22;2617;51.006;12.436;2023-05-27T10:12:39;16.60;88.20
5196;DHT22;2617;51.006;12.436;2023-05-27T10:17:47;16.30;88.80
5196;DHT22;2617;51.006;12.436;2023-05-27T10:22:50;16.50;87.60
5196;DHT22;2617;51.006;12.436;2023-05-27T10:27:52;16.60;88.10
5196;DHT22;2617;51.006;12.436;2023-05-27T10:32:54;16.70;87.70
5196;DHT22;2617;51.006;12.436;2023-05-27T10:37:57;16.80;87.10
5196;DHT22;2617;51.006;12.436;2023-05-27T10:42:59;17.00;85.90
5196;DHT22;2617;51.006;12.436;2023-05-27T10:48:02;17.00;84.30
5196;DHT22;2617;51.006;12.436;2023-05-27T10:53:04;17.00;84.20
5196;DHT22;2617;51.006;12.436;2023-05-27T10:58:07;17.40;86.30
5196;DHT22;2617;51.006;12.436;2023-05-27T11:03:16;17.60;83.20
5196;DHT22;2617;51.006;12.436;2023-05-27T11:08:18;17.60;83.20
5196;DHT22;2617;51.006;12.436;2023-05-27T11:13:20;17.60;83.30
5196;DHT22;2617;51.006;12.436;2023-05-27T11:18:23;17.60;82.20
5196;DHT22;2617;51.006;12.436;2023-05-27T11:28:49;17.70;83.20
5196;DHT22;2617;51.006;12.436;2023-05-27T11:33:51;17.70;81.00
5196;DHT22;2617;51.006;12.436;2023-05-27T11:38:57;17.90;82.20
5196;DHT22;2617;51.006;12.436;2023-05-27T11:44:03;18.10;79.70
5196;DHT22;2617;51.006;12.436;2023-05-27T11:49:07;18.00;79.00
5196;DHT22;2617;51.006;12.436;2023-05-27T11:54:30;18.00;79.00
5196;DHT22;2617;51.006;12.436;2023-05-27T11:59:33;18.30;79.20
5196;DHT22;2617;51.006;12.436;2023-05-27T12:04:35;18.10;79.40
5196;DHT22;2617;51.006;12.436;2023-05-27T12:09:37;18.10;79.40
5196;DHT22;2617;51.006;12.436;2023-05-27T12:14:40;18.30;80.00
5196;DHT22;2617;51.006;12.436;2023-05-27T12:19:42;18.60;78.30
5196;DHT22;2617;51.006;12.436;2023-05-27T12:24:45;18.60;78.60
5196;DHT22;2617;51.006;12.436;2023-05-27T12:29:47;18.70;79.20
5196;DHT22;2617;51.006;12.436;2023-05-27T12:34:49;18.70;77.00
5196;DHT22;2617;51.006;12.436;2023-05-27T12:39:52;18.50;76.80
5196;DHT22;2617;51.006;12.436;2023-05-27T12:44:55;18.60;78.80
5196;DHT22;2617;51.006;12.436;2023-05-27T12:49:57;19.00;79.60
5196;DHT22;2617;51.006;12.436;2023-05-27T12:54:59;19.40;73.90
5196;DHT22;2617;51.006;12.436;2023-05-27T13:00:02;19.20;74.40
5196;DHT22;2617;51.006;12.436;2023-05-27T13:05:05;19.10;76.10
5196;DHT22;2617;51.006;12.436;2023-05-27T13:10:12;19.20;74.30
5196;DHT22;2617;51.006;12.436;2023-05-27T13:15:15;19.10;74.20
5196;DHT22;2617;51.006;12.436;2023-05-27T13:20:19;19.30;74.40
5196;DHT22;2617;51.006;12.436;2023-05-27T13:25:21;19.30;73.90
5196;DHT22;2617;51.006;12.436;2023-05-27T13:30:23;19.30;76.30
5196;DHT22;2617;51.006;12.436;2023-05-27T13:35:26;19.20;77.80
5196;DHT22;2617;51.006;12.436;2023-05-27T13:40:28;19.20;72.80
5196;DHT22;2617;51.006;12.436;2023-05-27T13:45:31;19.20;74.80
5196;DHT22;2617;51.006;12.436;2023-05-27T13:50:33;19.40;74.40
5196;DHT22;2617;51.006;12.436;2023-05-27T13:55:36;19.40;75.10
5196;DHT22;2617;51.006;12.436;2023-05-27T14:00:39;19.40;75.00
5196;DHT22;2617;51.006;12.436;2023-05-27T14:05:42;19.80;73.10
5196;DHT22;2617;51.006;12.436;2023-05-27T14:10:44;19.80;73.10
5196;DHT22;2617;51.006;12.436;2023-05-27T14:15:47;20.10;71.70
5196;DHT22;2617;51.006;12.436;2023-05-27T14:20:50;20.00;71.60
5196;DHT22;2617;51.006;12.436;2023-05-27T14:25:53;19.80;71.20
5196;DHT22;2617;51.006;12.436;2023-05-27T14:30:56;19.90;71.10
5196;DHT22;2617;51.006;12.436;2023-05-27T14:35:58;20.00;70.70
5196;DHT22;2617;51.006;12.436;2023-05-27T14:41:00;20.10;71.00
5196;DHT22;2617;51.006;12.436;2023-05-27T14:46:03;20.10;71.00
5196;DHT22;2617;51.006;12.436;2023-05-27T14:51:05;20.00;71.30
5196;DHT22;2617;51.006;12.436;2023-05-27T14:56:08;20.10;72.70
5196;DHT22;2617;51.006;12.436;2023-05-27T15:01:10;20.20;70.70
5196;DHT22;2617;51.006;12.436;2023-05-27T15:06:12;19.90;71.50
5196;DHT22;2617;51.006;12.436;2023-05-27T15:11:15;20.30;70.30
5196;DHT22;2617;51.006;12.436;2023-05-27T15:16:17;20.20;69.70
5196;DHT22;2617;51.006;12.436;2023-05-27T15:21:20;20.10;70.30
5196;DHT22;2617;51.006;12.436;2023-05-27T15:26:23;20.30;69.80
5196;DHT22;2617;51.006;12.436;2023-05-27T15:31:26;20.20;69.70
5196;DHT22;2617;51.006;12.436;2023-05-27T15:36:29;20.50;67.70
5196;DHT22;2617;51.006;12.436;2023-05-27T15:41:31;20.40;67.60
5196;DHT22;2617;51.006;12.436;2023-05-27T15:46:34;20.50;65.90
5196;DHT22;2617;51.006;12.436;2023-05-27T15:51:37;20.50;68.90
5196;DHT22;2617;51.006;12.436;2023-05-27T15:56:39;20.40;68.90
5196;DHT22;2617;51.006;12.436;2023-05-27T16:01:42;20.30;68.50
5196;DHT22;2617;51.006;12.436;2023-05-27T16:06:44;20.20;67.60
5196;DHT22;2617;51.006;12.436;2023-05-27T16:11:47;19.90;67.00
5196;DHT22;2617;51.006;12.436;2023-05-27T16:16:49;19.90;69.50
5196;DHT22;2617;51.006;12.436;2023-05-27T16:21:52;19.80;68.90
5196;DHT22;2617;51.006;12.436;2023-05-27T16:26:55;19.70;68.70
5196;DHT22;2617;51.006;12.436;2023-05-27T16:31:57;19.50;68.80
5196;DHT22;2617;51.006;12.436;2023-05-27T16:37:00;19.50;67.60
5196;DHT22;2617;51.006;12.436;2023-05-27T16:42:02;19.40;65.70
5196;DHT22;2617;51.006;12.436;2023-05-27T16:47:05;19.50;68.80
5196;DHT22;2617;51.006;12.436;2023-05-27T16:52:08;19.50;68.70
5196;DHT22;2617;51.006;12.436;2023-05-27T16:57:10;19.40;68.80
5196;DHT22;2617;51.006;12.436;2023-05-27T17:02:13;19.30;66.50
5196;DHT22;2617;51.006;12.436;2023-05-27T17:07:16;19.30;66.50
5196;DHT22;2617;51.006;12.436;2023-05-27T17:12:18;19.30;66.50
5196;DHT22;2617;51.006;12.436;2023-05-27T17:17:21;19.30;66.80
5196;DHT22;2617;51.006;12.436;2023-05-27T17:22:23;19.00;68.20
5196;DHT22;2617;51.006;12.436;2023-05-27T17:27:26;19.00;67.00
5196;DHT22;2617;51.006;12.436;2023-05-27T17:32:29;19.00;67.60
5196;DHT22;2617;51.006;12.436;2023-05-27T17:37:31;18.80;68.90
5196;DHT22;2617;51.006;12.436;2023-05-27T17:42:34;18.80;69.10
5196;DHT22;2617;51.006;12.436;2023-05-27T17:47:37;19.00;70.40
5196;DHT22;2617;51.006;12.436;2023-05-27T17:52:39;19.00;70.40
5196;DHT22;2617;51.006;12.436;2023-05-27T17:57:42;18.90;70.70
5196;DHT22;2617;51.006;12.436;2023-05-27T18:02:44;18.90;71.40
5196;DHT22;2617;51.006;12.436;2023-05-27T18:07:47;18.70;72.50
5196;DHT22;2617;51.006;12.436;2023-05-27T18:12:50;18.70;72.50
5196;DHT22;2617;51.006;12.436;2023-05-27T18:17:53;18.30;74.20
5196;DHT22;2617;51.006;12.436;2023-05-27T18:22:56;18.30;74.20
5196;DHT22;2617;51.006;12.436;2023-05-27T18:27:58;18.10;74.80
5196;DHT22;2617;51.006;12.436;2023-05-27T18:33:03;18.00;75.40
5196;DHT22;2617;51.006;12.436;2023-05-27T18:38:03;17.70;76.00
5196;DHT22;2617;51.006;12.436;2023-05-27T18:43:05;17.30;77.30
5196;DHT22;2617;51.006;12.436;2023-05-27T18:48:08;17.10;79.10
5196;DHT22;2617;51.006;12.436;2023-05-27T18:53:10;16.80;79.80
5196;DHT22;2617;51.006;12.436;2023-05-27T18:58:13;16.60;81.10
5196;DHT22;2617;51.006;12.436;2023-05-27T19:03:16;16.20;81.70
5196;DHT22;2617;51.006;12.436;2023-05-27T19:08:18;16.20;81.70
5196;DHT22;2617;51.006;12.436;2023-05-27T19:13:21;16.10;82.50
5196;DHT22;2617;51.006;12.436;2023-05-27T19:18:24;15.80;84.10
5196;DHT22;2617;51.006;12.436;2023-05-27T19:23:28;15.70;84.00
5196;DHT22;2617;51.006;12.436;2023-05-27T19:28:30;15.60;84.60
5196;DHT22;2617;51.006;12.436;2023-05-27T19:33:33;15.50;85.10
5196;DHT22;2617;51.006;12.436;2023-05-27T19:38:35;15.30;86.00
5196;DHT22;2617;51.006;12.436;2023-05-27T19:43:38;15.00;87.70
5196;DHT22;2617;51.006;12.436;2023-05-27T19:48:40;14.80;89.90
5196;DHT22;2617;51.006;12.436;2023-05-27T19:53:42;14.60;90.70
5196;DHT22;2617;51.006;12.436;2023-05-27T19:58:45;14.40;91.40
5196;DHT22;2617;51.006;12.436;2023-05-27T20:03:48;14.10;92.80
5196;DHT22;2617;51.006;12.436;2023-05-27T20:08:50;14.10;92.80
5196;DHT22;2617;51.006;12.436;2023-05-27T20:13:53;13.90;93.30
5196;DHT22;2617;51.006;12.436;2023-05-27T20:18:55;13.70;94.00
5196;DHT22;2617;51.006;12.436;2023-05-27T20:23:59;13.30;95.70
5196;DHT22;2617;51.006;12.436;2023-05-27T20:29:02;13.30;95.70
5196;DHT22;2617;51.006;12.436;2023-05-27T20:34:04;13.20;96.40
5196;DHT22;2617;51.006;12.436;2023-05-27T20:39:06;13.00;97.00
5196;DHT22;2617;51.006;12.436;2023-05-27T20:44:09;12.80;97.70
5196;DHT22;2617;51.006;12.436;2023-05-27T20:49:12;12.50;99.30
5196;DHT22;2617;51.006;12.436;2023-05-27T20:54:14;12.50;99.30
5196;DHT22;2617;51.006;12.436;2023-05-27T20:59:18;12.20;99.90
5196;DHT22;2617;51.006;12.436;2023-05-27T21:04:20;12.20;99.90
5196;DHT22;2617;51.006;12.436;2023-05-27T21:09:22;12.10;99.90
5196;DHT22;2617;51.006;12.436;2023-05-27T21:14:25;11.90;99.90
5196;DHT22;2617;51.006;12.436;2023-05-27T21:19:27;11.80;99.90
5196;DHT22;2617;51.006;12.436;2023-05-27T21:24:30;11.60;99.90
5196;DHT22;2617;51.006;12.436;2023-05-27T21:29:33;11.50;99.90
5196;DHT22;2617;51.006;12.436;2023-05-27T21:34:35;11.40;99.90
5196;DHT22;2617;51.006;12.436;2023-05-27T21:39:38;11.30;99.90
5196;DHT22;2617;51.006;12.436;2023-05-27T21:44:40;11.20;99.90
5196;DHT22;2617;51.006;12.436;2023-05-27T21:49:43;11.00;99.90
5196;DHT22;2617;51.006;12.436;2023-05-27T21:54:46;10.70;99.90
5196;DHT22;2617;51.006;12.436;2023-05-27T21:59:48;10.70;99.90
5196;DHT22;2617;51.006;12.436;2023-05-27T22:04:51;10.60;99.90
5196;DHT22;2617;51.006;12.436;2023-05-27T22:09:54;10.60;99.90
5196;DHT22;2617;51.006;12.436;2023-05-27T22:14:56;10.50;99.90
5196;DHT22;2617;51.006;12.436;2023-05-27T22:20:00;10.30;99.90
5196;DHT22;2617;51.006;12.436;2023-05-27T22:25:02;10.30;99.90
5196;DHT22;2617;51.006;12.436;2023-05-27T22:30:06;10.10;99.90
5196;DHT22;2617;51.006;12.436;2023-05-27T22:35:09;10.00;99.90
5196;DHT22;2617;51.006;12.436;2023-05-27T22:40:12;9.90;99.90
5196;DHT22;2617;51.006;12.436;2023-05-27T22:45:14;9.80;99.90
5196;DHT22;2617;51.006;12.436;2023-05-27T22:50:17;9.60;99.90
5196;DHT22;2617;51.006;12.436;2023-05-27T22:55:20;9.40;99.90
5196;DHT22;2617;51.006;12.436;2023-05-27T23:00:22;9.40;99.90
5196;DHT22;2617;51.006;12.436;2023-05-27T23:05:25;9.30;99.90
5196;DHT22;2617;51.006;12.436;2023-05-27T23:10:28;9.10;99.90
5196;DHT22;2617;51.006;12.436;2023-05-27T23:15:31;9.10;99.90
5196;DHT22;2617;51.006;12.436;2023-05-27T23:20:33;9.10;99.90
5196;DHT22;2617;51.006;12.436;2023-05-27T23:25:36;9.00;99.90
5196;DHT22;2617;51.006;12.436;2023-05-27T23:30:38;8.90;99.90
5196;DHT22;2617;51.006;12.436;2023-05-27T23:35:40;8.80;99.90
5196;DHT22;2617;51.006;12.436;2023-05-27T23:40:43;8.70;99.90
5196;DHT22;2617;51.006;12.436;2023-05-27T23:45:45;8.60;99.90
5196;DHT22;2617;51.006;12.436;2023-05-27T23:50:49;8.40;99.90
5196;DHT22;2617;51.006;12.436;2023-05-27T23:55:51;8.40;99.90
